sensor_id;sensor_type;location;lat;lon;timestamp;temperature;humidity
42841;DHT22;28491;46.898;7.660;2023-03-01T00:01:05;-0.50;1.00
42841;DHT22;28491;46.898;7.660;2023-03-01T00:03:31;-0.50;1.00
42841;DHT22;28491;46.898;7.660;2023-03-01T00:05:57;-0.50;1.00
42841;DHT22;28491;46.898;7.660;2023-03-01T00:08:23;-0.50;1.00
42841;DHT22;28491;46.898;7.660;2023-03-01T00:10:48;-0.60;1.00
42841;DHT22;28491;46.898;7.660;2023-03-01T00:13:14;-0.40;1.00
42841;DHT22;28491;46.898;7.660;2023-03-01T00:15:40;-0.50;1.00
42841;DHT22;28491;46.898;7.660;2023-03-01T00:18:07;-0.40;1.00
42841;DHT22;28491;46.898;7.660;2023-03-01T00:20:33;-0.40;1.00
42841;DHT22;28491;46.898;7.660;2023-03-01T00:22:59;-0.40;1.00
42841;DHT22;28491;46.898;7.660;2023-03-01T00:25:24;-0.40;1.00
42841;DHT22;28491;46.898;7.660;2023-03-01T00:27:50;-0.50;1.00
42841;DHT22;28491;46.898;7.660;2023-03-01T00:30:16;-0.50;1.00
42841;DHT22;28491;46.898;7.660;2023-03-01T00:32:41;-0.50;1.00
42841;DHT22;28491;46.898;7.660;2023-03-01T00:35:07;-0.50;1.00
42841;DHT22;28491;46.898;7.660;2023-03-01T00:37:32;-0.50;1.00
42841;DHT22;28491;46.898;7.660;2023-03-01T00:39:58;-0.40;1.00
42841;DHT22;28491;46.898;7.660;2023-03-01T00:42:23;-0.40;1.00
42841;DHT22;28491;46.898;7.660;2023-03-01T00:44:49;-0.40;1.00
42841;DHT22;28491;46.898;7.660;2023-03-01T00:47:14;-0.40;1.00
42841;DHT22;28491;46.898;7.660;2023-03-01T00:49:40;-0.60;1.00
42841;DHT22;28491;46.898;7.660;2023-03-01T00:52:06;-0.60;1.00
42841;DHT22;28491;46.898;7.660;2023-03-01T00:54:32;-0.50;1.00
42841;DHT22;28491;46.898;7.660;2023-03-01T00:56:58;-0.50;1.00
42841;DHT22;28491;46.898;7.660;2023-03-01T00:59:23;-0.50;1.00
42841;DHT22;28491;46.898;7.660;2023-03-01T01:01:49;-0.50;1.00
42841;DHT22;28491;46.898;7.660;2023-03-01T01:04:14;-0.40;1.00
42841;DHT22;28491;46.898;7.660;2023-03-01T01:06:46;-0.50;1.00
42841;DHT22;28491;46.898;7.660;2023-03-01T01:09:14;-0.40;1.00
42841;DHT22;28491;46.898;7.660;2023-03-01T01:11:43;-0.50;1.00
42841;DHT22;28491;46.898;7.660;2023-03-01T01:14:09;-0.40;1.00
42841;DHT22;28491;46.898;7.660;2023-03-01T01:16:35;-0.40;1.00
42841;DHT22;28491;46.898;7.660;2023-03-01T01:19:00;-0.40;1.00
42841;DHT22;28491;46.898;7.660;2023-03-01T01:21:26;-0.40;1.00
42841;DHT22;28491;46.898;7.660;2023-03-01T01:23:52;-0.40;1.00
42841;DHT22;28491;46.898;7.660;2023-03-01T01:26:22;-0.30;1.00
42841;DHT22;28491;46.898;7.660;2023-03-01T01:28:48;-0.30;1.00
42841;DHT22;28491;46.898;7.660;2023-03-01T01:31:14;-0.30;1.00
42841;DHT22;28491;46.898;7.660;2023-03-01T01:33:40;-0.30;1.00
42841;DHT22;28491;46.898;7.660;2023-03-01T01:36:07;-0.30;1.00
42841;DHT22;28491;46.898;7.660;2023-03-01T01:38:33;-0.40;1.00
42841;DHT22;28491;46.898;7.660;2023-03-01T01:40:59;-0.40;1.00
42841;DHT22;28491;46.898;7.660;2023-03-01T01:43:32;-0.40;1.00
42841;DHT22;28491;46.898;7.660;2023-03-01T01:46:12;-0.40;1.00
42841;DHT22;28491;46.898;7.660;2023-03-01T01:48:43;-0.50;1.00
42841;DHT22;28491;46.898;7.660;2023-03-01T01:51:13;-0.40;1.00
42841;DHT22;28491;46.898;7.660;2023-03-01T01:53:40;-0.50;1.00
42841;DHT22;28491;46.898;7.660;2023-03-01T01:56:08;-0.40;1.00
42841;DHT22;28491;46.898;7.660;2023-03-01T01:58:37;-0.40;1.00
42841;DHT22;28491;46.898;7.660;2023-03-01T02:01:04;-0.30;1.00
42841;DHT22;28491;46.898;7.660;2023-03-01T02:03:31;-0.30;1.00
42841;DHT22;28491;46.898;7.660;2023-03-01T02:06:28;-0.40;1.00
42841;DHT22;28491;46.898;7.660;2023-03-01T02:08:57;-0.40;1.00
42841;DHT22;28491;46.898;7.660;2023-03-01T02:11:24;-0.50;1.00
42841;DHT22;28491;46.898;7.660;2023-03-01T02:13:51;-0.50;1.00
42841;DHT22;28491;46.898;7.660;2023-03-01T02:16:17;-0.50;1.00
42841;DHT22;28491;46.898;7.660;2023-03-01T02:18:43;-0.50;1.00
42841;DHT22;28491;46.898;7.660;2023-03-01T02:23:41;-0.40;1.00
42841;DHT22;28491;46.898;7.660;2023-03-01T02:26:16;-0.40;1.00
42841;DHT22;28491;46.898;7.660;2023-03-01T02:28:43;-0.40;1.00
42841;DHT22;28491;46.898;7.660;2023-03-01T02:31:11;-0.40;1.00
42841;DHT22;28491;46.898;7.660;2023-03-01T02:33:58;-0.50;1.00
42841;DHT22;28491;46.898;7.660;2023-03-01T02:36:30;-0.50;1.00
42841;DHT22;28491;46.898;7.660;2023-03-01T02:39:00;-0.60;1.00
42841;DHT22;28491;46.898;7.660;2023-03-01T02:41:30;-0.60;1.00
42841;DHT22;28491;46.898;7.660;2023-03-01T02:43:56;-0.60;1.00
42841;DHT22;28491;46.898;7.660;2023-03-01T02:46:24;-0.60;1.00
42841;DHT22;28491;46.898;7.660;2023-03-01T02:48:53;-0.50;1.00
42841;DHT22;28491;46.898;7.660;2023-03-01T02:57:27;-0.50;1.00
42841;DHT22;28491;46.898;7.660;2023-03-01T02:59:54;-0.50;1.00
42841;DHT22;28491;46.898;7.660;2023-03-01T03:02:21;-0.50;1.00
42841;DHT22;28491;46.898;7.660;2023-03-01T03:05:09;-0.50;1.00
42841;DHT22;28491;46.898;7.660;2023-03-01T03:07:39;-0.60;1.00
42841;DHT22;28491;46.898;7.660;2023-03-01T03:10:08;-0.50;1.00
42841;DHT22;28491;46.898;7.660;2023-03-01T03:12:35;-0.50;1.00
42841;DHT22;28491;46.898;7.660;2023-03-01T03:15:00;-0.50;1.00
42841;DHT22;28491;46.898;7.660;2023-03-01T03:17:26;-0.50;1.00
42841;DHT22;28491;46.898;7.660;2023-03-01T03:19:51;-0.50;1.00
42841;DHT22;28491;46.898;7.660;2023-03-01T03:22:17;-0.50;1.00
42841;DHT22;28491;46.898;7.660;2023-03-01T03:24:42;-0.60;1.00
42841;DHT22;28491;46.898;7.660;2023-03-01T03:27:08;-0.60;1.00
42841;DHT22;28491;46.898;7.660;2023-03-01T03:29:33;-0.60;1.00
42841;DHT22;28491;46.898;7.660;2023-03-01T03:31:59;-0.60;1.00
42841;DHT22;28491;46.898;7.660;2023-03-01T03:34:24;-0.60;1.00
42841;DHT22;28491;46.898;7.660;2023-03-01T03:36:55;-0.60;1.00
42841;DHT22;28491;46.898;7.660;2023-03-01T03:39:26;-0.60;1.00
42841;DHT22;28491;46.898;7.660;2023-03-01T03:41:53;-0.70;1.00
42841;DHT22;28491;46.898;7.660;2023-03-01T03:44:19;-0.60;1.00
42841;DHT22;28491;46.898;7.660;2023-03-01T03:46:44;-0.60;1.00
42841;DHT22;28491;46.898;7.660;2023-03-01T03:49:10;-0.60;1.00
42841;DHT22;28491;46.898;7.660;2023-03-01T03:51:35;-0.60;1.00
42841;DHT22;28491;46.898;7.660;2023-03-01T03:54:01;-0.60;1.00
42841;DHT22;28491;46.898;7.660;2023-03-01T03:56:26;-0.60;1.00
42841;DHT22;28491;46.898;7.660;2023-03-01T03:58:52;-0.60;1.00
42841;DHT22;28491;46.898;7.660;2023-03-01T04:01:18;-0.70;1.00
42841;DHT22;28491;46.898;7.660;2023-03-01T04:03:43;-0.70;1.00
42841;DHT22;28491;46.898;7.660;2023-03-01T04:06:12;-0.70;1.00
42841;DHT22;28491;46.898;7.660;2023-03-01T04:08:38;-0.70;1.00
42841;DHT22;28491;46.898;7.660;2023-03-01T04:11:05;-0.60;1.00
42841;DHT22;28491;46.898;7.660;2023-03-01T04:13:51;-0.70;1.00
42841;DHT22;28491;46.898;7.660;2023-03-01T04:16:17;-0.60;1.00
42841;DHT22;28491;46.898;7.660;2023-03-01T04:18:43;-0.70;1.00
42841;DHT22;28491;46.898;7.660;2023-03-01T04:21:09;-0.70;1.00
42841;DHT22;28491;46.898;7.660;2023-03-01T04:23:35;-0.70;1.00
42841;DHT22;28491;46.898;7.660;2023-03-01T04:26:01;-0.80;1.00
42841;DHT22;28491;46.898;7.660;2023-03-01T04:28:29;-0.70;1.00
42841;DHT22;28491;46.898;7.660;2023-03-01T04:30:57;-0.60;1.00
42841;DHT22;28491;46.898;7.660;2023-03-01T04:33:24;-0.60;1.00
42841;DHT22;28491;46.898;7.660;2023-03-01T04:35:50;-0.60;1.00
42841;DHT22;28491;46.898;7.660;2023-03-01T04:38:17;-0.70;1.00
42841;DHT22;28491;46.898;7.660;2023-03-01T04:40:42;-0.60;1.00
42841;DHT22;28491;46.898;7.660;2023-03-01T04:43:09;-0.60;1.00
42841;DHT22;28491;46.898;7.660;2023-03-01T04:45:35;-0.70;1.00
42841;DHT22;28491;46.898;7.660;2023-03-01T04:48:02;-0.70;1.00
42841;DHT22;28491;46.898;7.660;2023-03-01T04:50:28;-0.70;1.00
42841;DHT22;28491;46.898;7.660;2023-03-01T04:52:54;-0.60;1.00
42841;DHT22;28491;46.898;7.660;2023-03-01T04:55:25;-0.70;1.00
42841;DHT22;28491;46.898;7.660;2023-03-01T04:57:51;-0.70;1.00
42841;DHT22;28491;46.898;7.660;2023-03-01T05:00:17;-0.60;1.00
42841;DHT22;28491;46.898;7.660;2023-03-01T05:02:52;-0.60;1.00
42841;DHT22;28491;46.898;7.660;2023-03-01T05:05:19;-0.70;1.00
42841;DHT22;28491;46.898;7.660;2023-03-01T05:07:45;-0.70;1.00
42841;DHT22;28491;46.898;7.660;2023-03-01T05:10:11;-0.70;1.00
42841;DHT22;28491;46.898;7.660;2023-03-01T05:12:36;-0.70;1.00
42841;DHT22;28491;46.898;7.660;2023-03-01T05:15:03;-0.70;1.00
42841;DHT22;28491;46.898;7.660;2023-03-01T05:17:33;-0.70;1.00
42841;DHT22;28491;46.898;7.660;2023-03-01T05:20:01;-0.80;1.00
42841;DHT22;28491;46.898;7.660;2023-03-01T05:22:31;-0.80;1.00
42841;DHT22;28491;46.898;7.660;2023-03-01T05:24:56;-0.80;1.00
42841;DHT22;28491;46.898;7.660;2023-03-01T05:27:22;-0.80;1.00
42841;DHT22;28491;46.898;7.660;2023-03-01T05:29:48;-0.80;1.00
42841;DHT22;28491;46.898;7.660;2023-03-01T05:32:13;-0.80;1.00
42841;DHT22;28491;46.898;7.660;2023-03-01T05:34:41;-0.80;1.00
42841;DHT22;28491;46.898;7.660;2023-03-01T05:37:07;-0.80;1.00
42841;DHT22;28491;46.898;7.660;2023-03-01T05:39:33;-0.80;1.00
42841;DHT22;28491;46.898;7.660;2023-03-01T05:42:00;-0.80;1.00
42841;DHT22;28491;46.898;7.660;2023-03-01T05:44:27;-0.80;1.00
42841;DHT22;28491;46.898;7.660;2023-03-01T05:46:53;-0.80;1.00
42841;DHT22;28491;46.898;7.660;2023-03-01T05:49:19;-0.80;1.00
42841;DHT22;28491;46.898;7.660;2023-03-01T05:51:50;-0.80;1.00
42841;DHT22;28491;46.898;7.660;2023-03-01T05:54:16;-0.80;1.00
42841;DHT22;28491;46.898;7.660;2023-03-01T05:56:41;-0.80;1.00
42841;DHT22;28491;46.898;7.660;2023-03-01T05:59:07;-0.80;1.00
42841;DHT22;28491;46.898;7.660;2023-03-01T06:01:33;-0.80;1.00
42841;DHT22;28491;46.898;7.660;2023-03-01T06:03:59;-0.80;1.00
42841;DHT22;28491;46.898;7.660;2023-03-01T06:06:25;-0.80;1.00
42841;DHT22;28491;46.898;7.660;2023-03-01T06:08:52;-0.90;1.00
42841;DHT22;28491;46.898;7.660;2023-03-01T06:11:19;-0.90;1.00
42841;DHT22;28491;46.898;7.660;2023-03-01T06:13:44;-0.90;1.00
42841;DHT22;28491;46.898;7.660;2023-03-01T06:16:11;-0.90;1.00
42841;DHT22;28491;46.898;7.660;2023-03-01T06:18:37;-0.90;1.00
42841;DHT22;28491;46.898;7.660;2023-03-01T06:21:03;-0.90;1.00
42841;DHT22;28491;46.898;7.660;2023-03-01T06:23:29;-1.00;1.30
42841;DHT22;28491;46.898;7.660;2023-03-01T06:25:54;-0.80;1.00
42841;DHT22;28491;46.898;7.660;2023-03-01T06:28:20;-0.90;1.00
42841;DHT22;28491;46.898;7.660;2023-03-01T06:30:46;-0.90;1.00
42841;DHT22;28491;46.898;7.660;2023-03-01T06:33:11;-0.90;1.00
42841;DHT22;28491;46.898;7.660;2023-03-01T06:35:37;-0.80;1.00
42841;DHT22;28491;46.898;7.660;2023-03-01T06:38:04;-0.90;1.00
42841;DHT22;28491;46.898;7.660;2023-03-01T06:40:30;-0.90;1.00
42841;DHT22;28491;46.898;7.660;2023-03-01T06:42:57;-0.90;1.00
42841;DHT22;28491;46.898;7.660;2023-03-01T06:45:23;-0.80;1.00
42841;DHT22;28491;46.898;7.660;2023-03-01T06:47:49;-0.80;1.70
42841;DHT22;28491;46.898;7.660;2023-03-01T06:50:16;-0.90;2.20
42841;DHT22;28491;46.898;7.660;2023-03-01T06:52:43;-0.80;2.20
42841;DHT22;28491;46.898;7.660;2023-03-01T06:55:10;-0.90;1.50
42841;DHT22;28491;46.898;7.660;2023-03-01T06:57:36;-0.80;1.00
42841;DHT22;28491;46.898;7.660;2023-03-01T07:00:03;-0.80;1.00
42841;DHT22;28491;46.898;7.660;2023-03-01T07:02:28;-0.70;1.00
42841;DHT22;28491;46.898;7.660;2023-03-01T07:04:54;-0.70;1.00
42841;DHT22;28491;46.898;7.660;2023-03-01T07:07:19;-0.60;1.00
42841;DHT22;28491;46.898;7.660;2023-03-01T07:09:46;-0.60;1.00
42841;DHT22;28491;46.898;7.660;2023-03-01T07:12:12;-0.60;1.00
42841;DHT22;28491;46.898;7.660;2023-03-01T07:14:37;-0.60;1.00
42841;DHT22;28491;46.898;7.660;2023-03-01T07:17:03;-0.60;1.00
42841;DHT22;28491;46.898;7.660;2023-03-01T07:19:28;-0.60;1.00
42841;DHT22;28491;46.898;7.660;2023-03-01T07:21:54;-0.50;1.00
42841;DHT22;28491;46.898;7.660;2023-03-01T07:24:21;-0.60;1.00
42841;DHT22;28491;46.898;7.660;2023-03-01T07:26:50;-0.60;1.00
42841;DHT22;28491;46.898;7.660;2023-03-01T07:29:16;-0.60;1.00
42841;DHT22;28491;46.898;7.660;2023-03-01T07:31:42;-0.60;1.00
42841;DHT22;28491;46.898;7.660;2023-03-01T07:34:07;-0.50;1.00
42841;DHT22;28491;46.898;7.660;2023-03-01T07:36:33;-0.60;1.00
42841;DHT22;28491;46.898;7.660;2023-03-01T07:38:58;-0.60;1.00
42841;DHT22;28491;46.898;7.660;2023-03-01T07:41:24;-0.50;1.00
42841;DHT22;28491;46.898;7.660;2023-03-01T07:43:50;-0.50;1.00
42841;DHT22;28491;46.898;7.660;2023-03-01T07:46:15;-0.50;1.00
42841;DHT22;28491;46.898;7.660;2023-03-01T07:48:41;-0.50;1.00
42841;DHT22;28491;46.898;7.660;2023-03-01T07:51:06;-0.50;1.00
42841;DHT22;28491;46.898;7.660;2023-03-01T07:53:33;-0.60;1.00
42841;DHT22;28491;46.898;7.660;2023-03-01T07:56:08;-0.50;1.00
42841;DHT22;28491;46.898;7.660;2023-03-01T07:58:35;-0.60;1.00
42841;DHT22;28491;46.898;7.660;2023-03-01T08:01:05;-0.60;1.00
42841;DHT22;28491;46.898;7.660;2023-03-01T08:03:31;-0.70;1.00
42841;DHT22;28491;46.898;7.660;2023-03-01T08:05:59;-0.70;1.00
42841;DHT22;28491;46.898;7.660;2023-03-01T08:08:25;-0.60;1.00
42841;DHT22;28491;46.898;7.660;2023-03-01T08:10:51;-0.50;1.00
42841;DHT22;28491;46.898;7.660;2023-03-01T08:13:16;-0.40;1.00
42841;DHT22;28491;46.898;7.660;2023-03-01T08:15:50;-0.50;1.00
42841;DHT22;28491;46.898;7.660;2023-03-01T08:18:17;-0.50;1.00
42841;DHT22;28491;46.898;7.660;2023-03-01T08:20:43;-0.60;1.00
42841;DHT22;28491;46.898;7.660;2023-03-01T08:23:09;-0.60;1.00
42841;DHT22;28491;46.898;7.660;2023-03-01T08:25:35;-0.50;1.00
42841;DHT22;28491;46.898;7.660;2023-03-01T08:28:01;-0.50;1.00
42841;DHT22;28491;46.898;7.660;2023-03-01T08:30:26;-0.50;1.00
42841;DHT22;28491;46.898;7.660;2023-03-01T08:32:52;-0.40;1.00
42841;DHT22;28491;46.898;7.660;2023-03-01T08:35:19;-0.50;1.00
42841;DHT22;28491;46.898;7.660;2023-03-01T08:37:45;-0.40;1.00
42841;DHT22;28491;46.898;7.660;2023-03-01T08:40:11;-0.50;1.00
42841;DHT22;28491;46.898;7.660;2023-03-01T08:42:39;-0.40;1.00
42841;DHT22;28491;46.898;7.660;2023-03-01T08:45:05;-0.30;1.00
42841;DHT22;28491;46.898;7.660;2023-03-01T08:47:31;-0.30;1.00
42841;DHT22;28491;46.898;7.660;2023-03-01T08:49:56;-0.30;1.00
42841;DHT22;28491;46.898;7.660;2023-03-01T08:52:22;-0.30;1.00
42841;DHT22;28491;46.898;7.660;2023-03-01T08:54:48;-0.20;1.00
42841;DHT22;28491;46.898;7.660;2023-03-01T08:57:13;-0.30;1.00
42841;DHT22;28491;46.898;7.660;2023-03-01T08:59:39;-0.30;1.00
42841;DHT22;28491;46.898;7.660;2023-03-01T09:02:10;-0.20;1.00
42841;DHT22;28491;46.898;7.660;2023-03-01T09:04:36;-0.10;1.00
42841;DHT22;28491;46.898;7.660;2023-03-01T09:07:02;-0.20;1.00
42841;DHT22;28491;46.898;7.660;2023-03-01T09:09:27;-0.10;1.00
42841;DHT22;28491;46.898;7.660;2023-03-01T09:11:53;-0.20;1.00
42841;DHT22;28491;46.898;7.660;2023-03-01T09:14:18;-0.20;1.00
42841;DHT22;28491;46.898;7.660;2023-03-01T09:16:44;-0.20;1.00
42841;DHT22;28491;46.898;7.660;2023-03-01T09:19:10;-0.20;1.00
42841;DHT22;28491;46.898;7.660;2023-03-01T09:21:37;-0.20;1.00
42841;DHT22;28491;46.898;7.660;2023-03-01T09:24:03;-0.20;1.00
42841;DHT22;28491;46.898;7.660;2023-03-01T09:26:28;-0.10;1.00
42841;DHT22;28491;46.898;7.660;2023-03-01T09:28:55;0.00;1.00
42841;DHT22;28491;46.898;7.660;2023-03-01T09:31:23;0.00;1.00
42841;DHT22;28491;46.898;7.660;2023-03-01T09:33:51;0.00;1.00
42841;DHT22;28491;46.898;7.660;2023-03-01T09:36:21;0.00;1.00
42841;DHT22;28491;46.898;7.660;2023-03-01T09:38:47;0.10;1.00
42841;DHT22;28491;46.898;7.660;2023-03-01T09:44:01;0.20;1.00
42841;DHT22;28491;46.898;7.660;2023-03-01T09:46:34;0.10;1.00
42841;DHT22;28491;46.898;7.660;2023-03-01T09:49:05;0.00;1.00
42841;DHT22;28491;46.898;7.660;2023-03-01T09:51:35;0.00;1.00
42841;DHT22;28491;46.898;7.660;2023-03-01T09:54:02;0.10;1.00
42841;DHT22;28491;46.898;7.660;2023-03-01T09:56:46;0.20;1.00
42841;DHT22;28491;46.898;7.660;2023-03-01T10:08:29;0.10;1.00
42841;DHT22;28491;46.898;7.660;2023-03-01T10:10:57;0.20;1.00
42841;DHT22;28491;46.898;7.660;2023-03-01T10:13:52;0.20;1.00
42841;DHT22;28491;46.898;7.660;2023-03-01T10:16:38;0.30;1.00
42841;DHT22;28491;46.898;7.660;2023-03-01T10:19:12;0.40;1.00
42841;DHT22;28491;46.898;7.660;2023-03-01T10:21:44;0.30;1.00
42841;DHT22;28491;46.898;7.660;2023-03-01T10:24:16;0.40;1.00
42841;DHT22;28491;46.898;7.660;2023-03-01T10:26:53;0.40;1.00
42841;DHT22;28491;46.898;7.660;2023-03-01T10:29:56;0.40;1.00
42841;DHT22;28491;46.898;7.660;2023-03-01T10:32:14;0.40;1.00
42841;DHT22;28491;46.898;7.660;2023-03-01T10:34:40;0.40;1.00
42841;DHT22;28491;46.898;7.660;2023-03-01T10:37:17;0.50;1.00
42841;DHT22;28491;46.898;7.660;2023-03-01T10:40:01;0.40;1.00
42841;DHT22;28491;46.898;7.660;2023-03-01T10:42:32;0.50;1.00
42841;DHT22;28491;46.898;7.660;2023-03-01T10:48:15;0.50;1.00
42841;DHT22;28491;46.898;7.660;2023-03-01T10:50:45;0.50;1.00
42841;DHT22;28491;46.898;7.660;2023-03-01T10:53:32;0.60;1.00
42841;DHT22;28491;46.898;7.660;2023-03-01T10:56:12;0.60;1.00
42841;DHT22;28491;46.898;7.660;2023-03-01T10:59:03;0.60;1.00
42841;DHT22;28491;46.898;7.660;2023-03-01T11:01:35;0.60;1.00
42841;DHT22;28491;46.898;7.660;2023-03-01T11:06:40;0.80;1.00
42841;DHT22;28491;46.898;7.660;2023-03-01T11:09:23;0.70;1.00
42841;DHT22;28491;46.898;7.660;2023-03-01T11:11:57;0.80;1.00
42841;DHT22;28491;46.898;7.660;2023-03-01T11:14:25;0.80;1.00
42841;DHT22;28491;46.898;7.660;2023-03-01T11:17:05;0.80;1.00
42841;DHT22;28491;46.898;7.660;2023-03-01T11:19:31;0.90;1.00
42841;DHT22;28491;46.898;7.660;2023-03-01T11:22:20;0.80;1.00
42841;DHT22;28491;46.898;7.660;2023-03-01T11:24:50;0.80;1.00
42841;DHT22;28491;46.898;7.660;2023-03-01T11:27:24;0.90;1.00
42841;DHT22;28491;46.898;7.660;2023-03-01T11:29:58;1.00;1.00
42841;DHT22;28491;46.898;7.660;2023-03-01T11:32:28;0.90;1.00
42841;DHT22;28491;46.898;7.660;2023-03-01T11:35:26;1.00;1.00
42841;DHT22;28491;46.898;7.660;2023-03-01T11:38:23;1.00;1.00
42841;DHT22;28491;46.898;7.660;2023-03-01T11:46:33;1.10;1.00
42841;DHT22;28491;46.898;7.660;2023-03-01T11:59:43;1.10;1.00
42841;DHT22;28491;46.898;7.660;2023-03-01T12:05:24;1.10;1.00
42841;DHT22;28491;46.898;7.660;2023-03-01T12:10:59;1.10;1.00
42841;DHT22;28491;46.898;7.660;2023-03-01T12:16:08;1.20;1.00
42841;DHT22;28491;46.898;7.660;2023-03-01T12:18:51;1.30;1.00
42841;DHT22;28491;46.898;7.660;2023-03-01T12:26:41;1.00;1.00
42841;DHT22;28491;46.898;7.660;2023-03-01T12:29:30;1.10;1.00
42841;DHT22;28491;46.898;7.660;2023-03-01T12:42:48;1.30;1.00
42841;DHT22;28491;46.898;7.660;2023-03-01T12:48:03;1.40;1.00
42841;DHT22;28491;46.898;7.660;2023-03-01T12:50:43;1.50;1.00
42841;DHT22;28491;46.898;7.660;2023-03-01T12:53:26;1.60;1.00
42841;DHT22;28491;46.898;7.660;2023-03-01T12:55:54;1.60;1.00
42841;DHT22;28491;46.898;7.660;2023-03-01T12:58:28;1.60;1.00
42841;DHT22;28491;46.898;7.660;2023-03-01T13:03:53;1.60;1.00
42841;DHT22;28491;46.898;7.660;2023-03-01T13:06:29;1.50;1.00
42841;DHT22;28491;46.898;7.660;2023-03-01T13:11:32;1.50;1.00
42841;DHT22;28491;46.898;7.660;2023-03-01T13:16:45;1.50;1.00
42841;DHT22;28491;46.898;7.660;2023-03-01T13:19:22;1.50;1.00
42841;DHT22;28491;46.898;7.660;2023-03-01T13:21:50;1.50;1.00
42841;DHT22;28491;46.898;7.660;2023-03-01T13:24:35;1.40;1.00
42841;DHT22;28491;46.898;7.660;2023-03-01T13:29:48;1.30;1.00
42841;DHT22;28491;46.898;7.660;2023-03-01T13:32:26;1.40;1.00
42841;DHT22;28491;46.898;7.660;2023-03-01T13:37:45;1.40;1.00
42841;DHT22;28491;46.898;7.660;2023-03-01T13:42:47;1.40;1.00
42841;DHT22;28491;46.898;7.660;2023-03-01T13:48:03;1.60;1.00
42841;DHT22;28491;46.898;7.660;2023-03-01T13:50:38;1.60;1.00
42841;DHT22;28491;46.898;7.660;2023-03-01T13:53:14;1.70;1.00
42841;DHT22;28491;46.898;7.660;2023-03-01T13:55:44;1.60;1.00
42841;DHT22;28491;46.898;7.660;2023-03-01T13:58:25;1.70;1.00
42841;DHT22;28491;46.898;7.660;2023-03-01T14:01:04;1.70;1.00
42841;DHT22;28491;46.898;7.660;2023-03-01T14:03:31;1.60;1.00
42841;DHT22;28491;46.898;7.660;2023-03-01T14:06:15;1.70;1.00
42841;DHT22;28491;46.898;7.660;2023-03-01T14:08:44;1.50;1.00
42841;DHT22;28491;46.898;7.660;2023-03-01T14:21:45;1.60;1.00
42841;DHT22;28491;46.898;7.660;2023-03-01T14:24:17;1.70;1.00
42841;DHT22;28491;46.898;7.660;2023-03-01T14:26:43;1.50;1.00
42841;DHT22;28491;46.898;7.660;2023-03-01T14:29:24;1.60;1.00
42841;DHT22;28491;46.898;7.660;2023-03-01T14:31:50;1.50;1.00
42841;DHT22;28491;46.898;7.660;2023-03-01T14:34:21;1.40;1.00
42841;DHT22;28491;46.898;7.660;2023-03-01T14:36:47;1.40;1.00
42841;DHT22;28491;46.898;7.660;2023-03-01T14:39:18;1.40;1.00
42841;DHT22;28491;46.898;7.660;2023-03-01T14:41:44;1.30;1.00
42841;DHT22;28491;46.898;7.660;2023-03-01T14:44:16;1.40;1.00
42841;DHT22;28491;46.898;7.660;2023-03-01T14:46:45;1.60;1.00
42841;DHT22;28491;46.898;7.660;2023-03-01T14:49:14;1.60;1.00
42841;DHT22;28491;46.898;7.660;2023-03-01T14:51:46;1.70;1.00
42841;DHT22;28491;46.898;7.660;2023-03-01T14:54:27;1.60;1.00
42841;DHT22;28491;46.898;7.660;2023-03-01T14:56:58;1.60;1.00
42841;DHT22;28491;46.898;7.660;2023-03-01T14:59:25;1.50;1.00
42841;DHT22;28491;46.898;7.660;2023-03-01T15:01:51;1.50;1.00
42841;DHT22;28491;46.898;7.660;2023-03-01T15:04:18;1.50;1.00
42841;DHT22;28491;46.898;7.660;2023-03-01T15:06:45;1.40;1.00
42841;DHT22;28491;46.898;7.660;2023-03-01T15:09:14;1.40;1.00
42841;DHT22;28491;46.898;7.660;2023-03-01T15:11:41;1.40;1.00
42841;DHT22;28491;46.898;7.660;2023-03-01T15:17:04;1.30;1.00
42841;DHT22;28491;46.898;7.660;2023-03-01T15:19:30;1.40;1.00
42841;DHT22;28491;46.898;7.660;2023-03-01T15:21:56;1.50;1.00
42841;DHT22;28491;46.898;7.660;2023-03-01T15:24:25;1.30;1.00
42841;DHT22;28491;46.898;7.660;2023-03-01T15:26:58;1.30;1.00
42841;DHT22;28491;46.898;7.660;2023-03-01T15:29:28;1.30;1.00
42841;DHT22;28491;46.898;7.660;2023-03-01T15:32:03;1.30;1.00
42841;DHT22;28491;46.898;7.660;2023-03-01T15:34:36;1.30;1.00
42841;DHT22;28491;46.898;7.660;2023-03-01T15:37:04;1.30;1.00
42841;DHT22;28491;46.898;7.660;2023-03-01T15:39:40;1.40;1.00
42841;DHT22;28491;46.898;7.660;2023-03-01T15:42:13;1.40;1.00
42841;DHT22;28491;46.898;7.660;2023-03-01T15:45:21;1.40;1.00
42841;DHT22;28491;46.898;7.660;2023-03-01T15:47:58;1.30;1.00
42841;DHT22;28491;46.898;7.660;2023-03-01T15:50:35;1.20;1.00
42841;DHT22;28491;46.898;7.660;2023-03-01T15:53:05;1.20;1.00
42841;DHT22;28491;46.898;7.660;2023-03-01T15:55:36;1.20;1.00
42841;DHT22;28491;46.898;7.660;2023-03-01T15:58:17;1.20;1.00
42841;DHT22;28491;46.898;7.660;2023-03-01T16:00:44;1.20;1.00
42841;DHT22;28491;46.898;7.660;2023-03-01T16:03:13;1.20;1.00
42841;DHT22;28491;46.898;7.660;2023-03-01T16:05:39;1.20;1.00
42841;DHT22;28491;46.898;7.660;2023-03-01T16:08:06;1.20;1.00
42841;DHT22;28491;46.898;7.660;2023-03-01T16:10:32;1.20;1.00
42841;DHT22;28491;46.898;7.660;2023-03-01T16:12:58;1.10;1.00
42841;DHT22;28491;46.898;7.660;2023-03-01T16:15:34;1.10;1.00
42841;DHT22;28491;46.898;7.660;2023-03-01T16:18:01;1.10;1.00
42841;DHT22;28491;46.898;7.660;2023-03-01T16:20:28;1.10;1.00
42841;DHT22;28491;46.898;7.660;2023-03-01T16:22:57;1.00;1.00
42841;DHT22;28491;46.898;7.660;2023-03-01T16:25:23;1.10;1.00
42841;DHT22;28491;46.898;7.660;2023-03-01T16:27:49;1.00;1.00
42841;DHT22;28491;46.898;7.660;2023-03-01T16:30:18;1.10;1.00
42841;DHT22;28491;46.898;7.660;2023-03-01T16:32:45;1.00;1.00
42841;DHT22;28491;46.898;7.660;2023-03-01T16:35:12;1.00;1.00
42841;DHT22;28491;46.898;7.660;2023-03-01T16:37:39;1.00;1.00
42841;DHT22;28491;46.898;7.660;2023-03-01T16:40:06;0.90;1.00
42841;DHT22;28491;46.898;7.660;2023-03-01T16:42:37;1.00;1.00
42841;DHT22;28491;46.898;7.660;2023-03-01T16:45:03;1.00;1.00
42841;DHT22;28491;46.898;7.660;2023-03-01T16:47:29;1.00;1.00
42841;DHT22;28491;46.898;7.660;2023-03-01T16:49:55;0.90;1.00
42841;DHT22;28491;46.898;7.660;2023-03-01T16:52:21;0.90;1.00
42841;DHT22;28491;46.898;7.660;2023-03-01T16:54:48;0.90;1.00
42841;DHT22;28491;46.898;7.660;2023-03-01T16:57:13;0.90;1.00
42841;DHT22;28491;46.898;7.660;2023-03-01T16:59:39;0.90;1.00
42841;DHT22;28491;46.898;7.660;2023-03-01T17:02:06;0.90;1.00
42841;DHT22;28491;46.898;7.660;2023-03-01T17:04:35;0.80;1.00
42841;DHT22;28491;46.898;7.660;2023-03-01T17:07:00;0.90;1.00
42841;DHT22;28491;46.898;7.660;2023-03-01T17:09:26;0.90;1.00
42841;DHT22;28491;46.898;7.660;2023-03-01T17:11:51;0.90;1.00
42841;DHT22;28491;46.898;7.660;2023-03-01T17:14:17;0.80;1.00
42841;DHT22;28491;46.898;7.660;2023-03-01T17:16:43;0.90;1.00
42841;DHT22;28491;46.898;7.660;2023-03-01T17:19:09;0.90;1.00
42841;DHT22;28491;46.898;7.660;2023-03-01T17:21:34;0.90;1.00
42841;DHT22;28491;46.898;7.660;2023-03-01T17:24:00;0.90;1.00
42841;DHT22;28491;46.898;7.660;2023-03-01T17:26:26;0.80;1.00
42841;DHT22;28491;46.898;7.660;2023-03-01T17:28:54;0.90;1.00
42841;DHT22;28491;46.898;7.660;2023-03-01T17:31:20;0.90;1.00
42841;DHT22;28491;46.898;7.660;2023-03-01T17:33:46;0.90;1.00
42841;DHT22;28491;46.898;7.660;2023-03-01T17:36:11;0.90;1.00
42841;DHT22;28491;46.898;7.660;2023-03-01T17:38:37;0.90;1.00
42841;DHT22;28491;46.898;7.660;2023-03-01T17:41:03;0.90;1.00
42841;DHT22;28491;46.898;7.660;2023-03-01T17:43:29;0.80;1.00
42841;DHT22;28491;46.898;7.660;2023-03-01T17:45:56;0.80;1.00